Terminal Aerodrome Forecast
Issued by NWS

Home | Current Version | Previous Version | Text Only | Print | Product List | Glossary On
Versions: 1 2 3 4 5 6 7 8 9 10 11 12 13 14 15 16 17 18 19 20
000
FTUS44 KBMX 212323
TAFANB
TAF
KANB 212323Z 2200/2224 05005KT 5SM -RA BR SCT025 OVC060
      TEMPO 2200/2203 BKN025
     FM220300 07005KT 4SM -RA BR OVC007
     FM221500 08007KT P6SM VCSH OVC008
     FM221900 08006KT P6SM VCSH OVC015=

USA.gov is the U.S. government's official web portal to all federal, state and local government web resources and services.